sensor_id;sensor_type;location;lat;lon;timestamp;temperature;humidity
41547;DHT22;27271;45.412;10.852;2022-09-01T00:01:20;20.70;99.90
41547;DHT22;27271;45.412;10.852;2022-09-01T00:04:45;20.50;99.90
41547;DHT22;27271;45.412;10.852;2022-09-01T00:08:08;20.60;99.90
41547;DHT22;27271;45.412;10.852;2022-09-01T00:11:32;20.60;99.90
41547;DHT22;27271;45.412;10.852;2022-09-01T00:14:54;20.50;99.90
41547;DHT22;27271;45.412;10.852;2022-09-01T00:18:17;20.50;99.90
41547;DHT22;27271;45.412;10.852;2022-09-01T00:21:42;20.50;99.90
41547;DHT22;27271;45.412;10.852;2022-09-01T00:25:05;20.50;99.90
41547;DHT22;27271;45.412;10.852;2022-09-01T00:28:31;20.50;99.90
41547;DHT22;27271;45.412;10.852;2022-09-01T00:31:54;20.40;99.90
41547;DHT22;27271;45.412;10.852;2022-09-01T00:35:18;20.40;99.90
41547;DHT22;27271;45.412;10.852;2022-09-01T00:38:43;20.40;99.90
41547;DHT22;27271;45.412;10.852;2022-09-01T00:42:05;20.40;99.90
41547;DHT22;27271;45.412;10.852;2022-09-01T00:45:28;20.40;99.90
41547;DHT22;27271;45.412;10.852;2022-09-01T00:49:19;20.40;99.90
41547;DHT22;27271;45.412;10.852;2022-09-01T00:52:49;20.40;99.90
41547;DHT22;27271;45.412;10.852;2022-09-01T00:56:12;20.30;99.90
41547;DHT22;27271;45.412;10.852;2022-09-01T00:59:40;20.20;99.90
41547;DHT22;27271;45.412;10.852;2022-09-01T01:03:08;20.20;99.90
41547;DHT22;27271;45.412;10.852;2022-09-01T01:06:34;20.20;99.90
41547;DHT22;27271;45.412;10.852;2022-09-01T01:09:56;20.20;99.90
41547;DHT22;27271;45.412;10.852;2022-09-01T01:13:19;20.10;99.90
41547;DHT22;27271;45.412;10.852;2022-09-01T01:16:43;20.10;99.90
41547;DHT22;27271;45.412;10.852;2022-09-01T01:20:07;20.10;99.90
41547;DHT22;27271;45.412;10.852;2022-09-01T01:23:59;20.00;99.90
41547;DHT22;27271;45.412;10.852;2022-09-01T01:27:23;20.00;99.90
41547;DHT22;27271;45.412;10.852;2022-09-01T01:30:54;20.00;99.90
41547;DHT22;27271;45.412;10.852;2022-09-01T01:34:18;20.00;99.90
41547;DHT22;27271;45.412;10.852;2022-09-01T01:37:42;20.00;99.90
41547;DHT22;27271;45.412;10.852;2022-09-01T01:41:16;20.00;99.90
41547;DHT22;27271;45.412;10.852;2022-09-01T01:44:41;20.10;99.90
41547;DHT22;27271;45.412;10.852;2022-09-01T01:48:03;20.10;99.90
41547;DHT22;27271;45.412;10.852;2022-09-01T01:52:05;20.20;99.90
41547;DHT22;27271;45.412;10.852;2022-09-01T01:55:32;20.20;99.90
41547;DHT22;27271;45.412;10.852;2022-09-01T01:58:55;20.20;99.90
41547;DHT22;27271;45.412;10.852;2022-09-01T02:02:20;20.20;99.90
41547;DHT22;27271;45.412;10.852;2022-09-01T02:05:42;20.30;99.90
41547;DHT22;27271;45.412;10.852;2022-09-01T02:09:05;20.30;99.90
41547;DHT22;27271;45.412;10.852;2022-09-01T02:12:28;20.40;99.90
41547;DHT22;27271;45.412;10.852;2022-09-01T02:15:54;20.40;99.90
41547;DHT22;27271;45.412;10.852;2022-09-01T02:19:18;20.50;99.90
41547;DHT22;27271;45.412;10.852;2022-09-01T02:22:42;20.50;99.90
41547;DHT22;27271;45.412;10.852;2022-09-01T02:26:07;20.50;99.90
41547;DHT22;27271;45.412;10.852;2022-09-01T02:29:42;20.60;99.90
41547;DHT22;27271;45.412;10.852;2022-09-01T02:33:04;20.70;99.90
41547;DHT22;27271;45.412;10.852;2022-09-01T02:36:29;20.70;99.90
41547;DHT22;27271;45.412;10.852;2022-09-01T02:39:56;20.70;99.90
41547;DHT22;27271;45.412;10.852;2022-09-01T02:43:20;20.70;99.90
41547;DHT22;27271;45.412;10.852;2022-09-01T02:46:44;20.80;99.90
41547;DHT22;27271;45.412;10.852;2022-09-01T02:50:07;20.80;99.90
41547;DHT22;27271;45.412;10.852;2022-09-01T02:53:36;20.80;99.90
41547;DHT22;27271;45.412;10.852;2022-09-01T02:57:00;20.90;99.90
41547;DHT22;27271;45.412;10.852;2022-09-01T03:00:23;20.80;99.90
41547;DHT22;27271;45.412;10.852;2022-09-01T03:03:55;20.80;99.90
41547;DHT22;27271;45.412;10.852;2022-09-01T03:07:18;20.80;99.90
41547;DHT22;27271;45.412;10.852;2022-09-01T03:10:44;20.90;99.90
41547;DHT22;27271;45.412;10.852;2022-09-01T03:14:07;20.80;99.90
41547;DHT22;27271;45.412;10.852;2022-09-01T03:17:30;21.00;99.90
41547;DHT22;27271;45.412;10.852;2022-09-01T03:20:53;20.90;99.90
41547;DHT22;27271;45.412;10.852;2022-09-01T03:24:17;20.90;99.90
41547;DHT22;27271;45.412;10.852;2022-09-01T03:27:40;20.90;99.90
41547;DHT22;27271;45.412;10.852;2022-09-01T03:31:03;20.90;99.90
41547;DHT22;27271;45.412;10.852;2022-09-01T03:34:26;20.90;99.90
41547;DHT22;27271;45.412;10.852;2022-09-01T03:37:50;20.80;99.90
41547;DHT22;27271;45.412;10.852;2022-09-01T03:41:16;20.80;99.90
41547;DHT22;27271;45.412;10.852;2022-09-01T03:44:39;20.80;99.90
41547;DHT22;27271;45.412;10.852;2022-09-01T03:48:09;20.80;99.90
41547;DHT22;27271;45.412;10.852;2022-09-01T03:51:32;20.50;99.90
41547;DHT22;27271;45.412;10.852;2022-09-01T03:54:57;20.30;99.90
41547;DHT22;27271;45.412;10.852;2022-09-01T03:58:20;20.20;99.90
41547;DHT22;27271;45.412;10.852;2022-09-01T04:01:44;20.00;99.90
41547;DHT22;27271;45.412;10.852;2022-09-01T04:05:10;20.00;99.90
41547;DHT22;27271;45.412;10.852;2022-09-01T04:08:32;20.10;99.90
41547;DHT22;27271;45.412;10.852;2022-09-01T04:11:55;19.90;99.90
41547;DHT22;27271;45.412;10.852;2022-09-01T04:15:18;19.90;99.90
41547;DHT22;27271;45.412;10.852;2022-09-01T04:18:40;20.00;99.90
41547;DHT22;27271;45.412;10.852;2022-09-01T04:22:04;20.00;99.90
41547;DHT22;27271;45.412;10.852;2022-09-01T04:25:32;19.90;99.90
41547;DHT22;27271;45.412;10.852;2022-09-01T04:28:55;19.80;99.90
41547;DHT22;27271;45.412;10.852;2022-09-01T04:32:18;19.70;99.90
41547;DHT22;27271;45.412;10.852;2022-09-01T04:35:47;19.70;99.90
41547;DHT22;27271;45.412;10.852;2022-09-01T04:39:11;19.80;99.90
41547;DHT22;27271;45.412;10.852;2022-09-01T04:42:34;19.70;99.90
41547;DHT22;27271;45.412;10.852;2022-09-01T04:45:58;19.70;99.90
41547;DHT22;27271;45.412;10.852;2022-09-01T04:49:20;19.60;99.90
41547;DHT22;27271;45.412;10.852;2022-09-01T04:52:46;19.50;99.90
41547;DHT22;27271;45.412;10.852;2022-09-01T04:56:23;19.40;99.90
41547;DHT22;27271;45.412;10.852;2022-09-01T05:00:10;19.40;99.90
41547;DHT22;27271;45.412;10.852;2022-09-01T05:03:48;19.40;99.90
41547;DHT22;27271;45.412;10.852;2022-09-01T05:07:48;19.50;99.90
41547;DHT22;27271;45.412;10.852;2022-09-01T05:11:21;19.50;99.90
41547;DHT22;27271;45.412;10.852;2022-09-01T05:15:00;19.50;99.90
41547;DHT22;27271;45.412;10.852;2022-09-01T05:18:27;19.40;99.90
41547;DHT22;27271;45.412;10.852;2022-09-01T05:21:55;19.40;99.90
41547;DHT22;27271;45.412;10.852;2022-09-01T05:25:22;19.40;99.90
41547;DHT22;27271;45.412;10.852;2022-09-01T05:29:03;19.50;99.90
41547;DHT22;27271;45.412;10.852;2022-09-01T05:32:31;19.60;99.90
41547;DHT22;27271;45.412;10.852;2022-09-01T05:35:56;19.50;99.90
41547;DHT22;27271;45.412;10.852;2022-09-01T05:39:21;19.50;99.90
41547;DHT22;27271;45.412;10.852;2022-09-01T05:42:43;19.50;99.90
41547;DHT22;27271;45.412;10.852;2022-09-01T05:46:06;19.60;99.90
41547;DHT22;27271;45.412;10.852;2022-09-01T05:49:30;19.60;99.90
41547;DHT22;27271;45.412;10.852;2022-09-01T05:52:57;19.70;99.90
41547;DHT22;27271;45.412;10.852;2022-09-01T05:56:19;19.90;99.90
41547;DHT22;27271;45.412;10.852;2022-09-01T05:59:42;19.90;99.90
41547;DHT22;27271;45.412;10.852;2022-09-01T06:03:09;19.90;99.90
41547;DHT22;27271;45.412;10.852;2022-09-01T06:06:45;20.00;99.90
41547;DHT22;27271;45.412;10.852;2022-09-01T06:10:31;19.90;99.90
41547;DHT22;27271;45.412;10.852;2022-09-01T06:13:56;19.90;99.90
41547;DHT22;27271;45.412;10.852;2022-09-01T06:17:21;19.90;99.90
41547;DHT22;27271;45.412;10.852;2022-09-01T06:20:47;20.00;99.90
41547;DHT22;27271;45.412;10.852;2022-09-01T06:24:11;20.00;99.90
41547;DHT22;27271;45.412;10.852;2022-09-01T06:27:37;20.00;99.90
41547;DHT22;27271;45.412;10.852;2022-09-01T06:31:05;20.10;99.90
41547;DHT22;27271;45.412;10.852;2022-09-01T06:34:33;20.30;99.90
41547;DHT22;27271;45.412;10.852;2022-09-01T06:37:57;20.30;99.90
41547;DHT22;27271;45.412;10.852;2022-09-01T06:41:30;20.40;99.90
41547;DHT22;27271;45.412;10.852;2022-09-01T06:44:53;20.40;99.90
41547;DHT22;27271;45.412;10.852;2022-09-01T06:48:15;20.60;99.90
41547;DHT22;27271;45.412;10.852;2022-09-01T06:51:39;20.70;99.90
41547;DHT22;27271;45.412;10.852;2022-09-01T06:55:01;20.90;99.90
41547;DHT22;27271;45.412;10.852;2022-09-01T06:58:31;21.00;99.90
41547;DHT22;27271;45.412;10.852;2022-09-01T07:01:54;21.10;99.90
41547;DHT22;27271;45.412;10.852;2022-09-01T07:06:04;21.30;99.90
41547;DHT22;27271;45.412;10.852;2022-09-01T07:09:48;21.40;99.90
41547;DHT22;27271;45.412;10.852;2022-09-01T07:13:38;21.50;99.90
41547;DHT22;27271;45.412;10.852;2022-09-01T07:17:23;21.50;99.90
41547;DHT22;27271;45.412;10.852;2022-09-01T07:20:47;21.60;99.90
41547;DHT22;27271;45.412;10.852;2022-09-01T07:24:30;21.70;99.90
41547;DHT22;27271;45.412;10.852;2022-09-01T07:28:22;21.80;99.90
41547;DHT22;27271;45.412;10.852;2022-09-01T07:31:46;22.10;99.90
41547;DHT22;27271;45.412;10.852;2022-09-01T07:35:11;21.90;99.90
41547;DHT22;27271;45.412;10.852;2022-09-01T07:38:33;22.00;99.90
41547;DHT22;27271;45.412;10.852;2022-09-01T07:42:17;22.00;99.90
41547;DHT22;27271;45.412;10.852;2022-09-01T07:46:19;22.20;99.90
41547;DHT22;27271;45.412;10.852;2022-09-01T07:50:04;22.40;99.90
41547;DHT22;27271;45.412;10.852;2022-09-01T07:53:48;22.30;99.90
41547;DHT22;27271;45.412;10.852;2022-09-01T07:57:13;22.50;99.90
41547;DHT22;27271;45.412;10.852;2022-09-01T08:00:38;22.70;99.90
41547;DHT22;27271;45.412;10.852;2022-09-01T08:04:03;22.80;99.90
41547;DHT22;27271;45.412;10.852;2022-09-01T08:07:25;22.90;99.90
41547;DHT22;27271;45.412;10.852;2022-09-01T08:10:48;23.30;99.90
41547;DHT22;27271;45.412;10.852;2022-09-01T08:14:10;23.60;99.90
41547;DHT22;27271;45.412;10.852;2022-09-01T08:17:32;23.40;99.90
41547;DHT22;27271;45.412;10.852;2022-09-01T08:21:12;23.50;99.90
41547;DHT22;27271;45.412;10.852;2022-09-01T08:25:00;23.60;99.90
41547;DHT22;27271;45.412;10.852;2022-09-01T08:28:23;23.90;99.90
41547;DHT22;27271;45.412;10.852;2022-09-01T08:31:49;24.00;99.90
41547;DHT22;27271;45.412;10.852;2022-09-01T08:35:12;24.20;99.90
41547;DHT22;27271;45.412;10.852;2022-09-01T08:38:38;24.20;99.90
41547;DHT22;27271;45.412;10.852;2022-09-01T08:42:15;24.20;99.90
41547;DHT22;27271;45.412;10.852;2022-09-01T08:45:54;23.80;99.90
41547;DHT22;27271;45.412;10.852;2022-09-01T08:49:21;23.90;99.90
41547;DHT22;27271;45.412;10.852;2022-09-01T08:56:39;24.30;99.90
41547;DHT22;27271;45.412;10.852;2022-09-01T09:00:05;24.60;99.90
41547;DHT22;27271;45.412;10.852;2022-09-01T09:03:58;24.70;99.90
41547;DHT22;27271;45.412;10.852;2022-09-01T09:11:00;25.10;97.20
41547;DHT22;27271;45.412;10.852;2022-09-01T09:18:16;25.90;94.30
41547;DHT22;27271;45.412;10.852;2022-09-01T09:22:04;25.90;94.20
41547;DHT22;27271;45.412;10.852;2022-09-01T09:25:28;25.90;95.00
41547;DHT22;27271;45.412;10.852;2022-09-01T09:28:51;26.80;94.00
41547;DHT22;27271;45.412;10.852;2022-09-01T09:32:15;27.70;92.30
41547;DHT22;27271;45.412;10.852;2022-09-01T09:36:16;27.50;92.10
41547;DHT22;27271;45.412;10.852;2022-09-01T09:39:39;27.00;90.80
41547;DHT22;27271;45.412;10.852;2022-09-01T09:43:04;26.40;93.10
41547;DHT22;27271;45.412;10.852;2022-09-01T09:46:39;26.40;91.80
41547;DHT22;27271;45.412;10.852;2022-09-01T09:53:42;26.80;91.30
41547;DHT22;27271;45.412;10.852;2022-09-01T10:00:31;26.30;90.90
41547;DHT22;27271;45.412;10.852;2022-09-01T10:03:57;26.70;89.90
41547;DHT22;27271;45.412;10.852;2022-09-01T10:07:35;28.30;90.30
41547;DHT22;27271;45.412;10.852;2022-09-01T10:10:58;28.90;85.20
41547;DHT22;27271;45.412;10.852;2022-09-01T10:14:34;29.70;82.10
41547;DHT22;27271;45.412;10.852;2022-09-01T10:18:18;29.60;78.20
41547;DHT22;27271;45.412;10.852;2022-09-01T10:21:44;28.00;81.50
41547;DHT22;27271;45.412;10.852;2022-09-01T10:25:08;27.80;84.00
41547;DHT22;27271;45.412;10.852;2022-09-01T10:28:32;28.00;86.30
41547;DHT22;27271;45.412;10.852;2022-09-01T10:31:55;28.50;85.90
41547;DHT22;27271;45.412;10.852;2022-09-01T10:35:43;29.00;81.70
41547;DHT22;27271;45.412;10.852;2022-09-01T10:39:10;29.80;83.20
41547;DHT22;27271;45.412;10.852;2022-09-01T10:42:32;29.70;80.70
41547;DHT22;27271;45.412;10.852;2022-09-01T10:45:55;29.60;77.90
41547;DHT22;27271;45.412;10.852;2022-09-01T10:52:53;32.10;75.20
41547;DHT22;27271;45.412;10.852;2022-09-01T10:56:18;31.90;72.80
41547;DHT22;27271;45.412;10.852;2022-09-01T11:01:00;31.60;70.60
41547;DHT22;27271;45.412;10.852;2022-09-01T11:03:58;30.90;73.40
41547;DHT22;27271;45.412;10.852;2022-09-01T11:14:54;29.70;76.50
41547;DHT22;27271;45.412;10.852;2022-09-01T11:18:25;30.20;76.70
41547;DHT22;27271;45.412;10.852;2022-09-01T11:22:09;30.50;72.70
41547;DHT22;27271;45.412;10.852;2022-09-01T11:29:06;31.40;74.70
41547;DHT22;27271;45.412;10.852;2022-09-01T11:32:35;31.10;69.80
41547;DHT22;27271;45.412;10.852;2022-09-01T11:39:52;30.40;78.80
41547;DHT22;27271;45.412;10.852;2022-09-01T11:43:17;30.30;76.70
41547;DHT22;27271;45.412;10.852;2022-09-01T11:46:40;30.30;67.90
41547;DHT22;27271;45.412;10.852;2022-09-01T11:50:07;30.00;72.40
41547;DHT22;27271;45.412;10.852;2022-09-01T11:53:37;30.10;75.90
41547;DHT22;27271;45.412;10.852;2022-09-01T11:57:38;30.00;71.10
41547;DHT22;27271;45.412;10.852;2022-09-01T12:01:29;30.20;71.30
41547;DHT22;27271;45.412;10.852;2022-09-01T12:04:54;29.90;70.60
41547;DHT22;27271;45.412;10.852;2022-09-01T12:08:18;29.10;74.20
41547;DHT22;27271;45.412;10.852;2022-09-01T12:11:45;29.20;74.90
41547;DHT22;27271;45.412;10.852;2022-09-01T12:15:20;29.40;75.40
41547;DHT22;27271;45.412;10.852;2022-09-01T12:18:48;29.20;77.10
41547;DHT22;27271;45.412;10.852;2022-09-01T12:22:16;29.20;70.00
41547;DHT22;27271;45.412;10.852;2022-09-01T12:25:39;29.20;69.00
41547;DHT22;27271;45.412;10.852;2022-09-01T12:29:01;29.50;74.10
41547;DHT22;27271;45.412;10.852;2022-09-01T12:32:23;29.10;80.30
41547;DHT22;27271;45.412;10.852;2022-09-01T12:35:46;29.20;72.50
41547;DHT22;27271;45.412;10.852;2022-09-01T12:39:21;29.10;73.50
41547;DHT22;27271;45.412;10.852;2022-09-01T12:42:49;29.50;73.30
41547;DHT22;27271;45.412;10.852;2022-09-01T12:46:11;29.50;73.80
41547;DHT22;27271;45.412;10.852;2022-09-01T12:49:45;29.40;75.90
41547;DHT22;27271;45.412;10.852;2022-09-01T12:53:15;29.60;74.80
41547;DHT22;27271;45.412;10.852;2022-09-01T12:56:38;30.00;76.00
41547;DHT22;27271;45.412;10.852;2022-09-01T13:00:20;30.10;73.30
41547;DHT22;27271;45.412;10.852;2022-09-01T13:04:04;29.80;71.40
41547;DHT22;27271;45.412;10.852;2022-09-01T13:07:24;29.20;72.90
41547;DHT22;27271;45.412;10.852;2022-09-01T13:10:52;29.40;70.80
41547;DHT22;27271;45.412;10.852;2022-09-01T13:14:15;29.80;73.40
41547;DHT22;27271;45.412;10.852;2022-09-01T13:17:37;30.40;71.70
41547;DHT22;27271;45.412;10.852;2022-09-01T13:20:59;30.90;70.00
41547;DHT22;27271;45.412;10.852;2022-09-01T13:24:22;30.60;73.10
41547;DHT22;27271;45.412;10.852;2022-09-01T13:27:51;30.70;68.40
41547;DHT22;27271;45.412;10.852;2022-09-01T13:31:16;30.50;69.00
41547;DHT22;27271;45.412;10.852;2022-09-01T13:35:01;29.90;71.20
41547;DHT22;27271;45.412;10.852;2022-09-01T13:38:24;29.60;72.60
41547;DHT22;27271;45.412;10.852;2022-09-01T13:41:47;28.90;70.80
41547;DHT22;27271;45.412;10.852;2022-09-01T13:45:11;28.40;75.60
41547;DHT22;27271;45.412;10.852;2022-09-01T13:48:33;28.30;72.30
41547;DHT22;27271;45.412;10.852;2022-09-01T13:52:16;28.10;74.50
41547;DHT22;27271;45.412;10.852;2022-09-01T13:55:40;27.70;74.70
41547;DHT22;27271;45.412;10.852;2022-09-01T13:59:02;27.10;75.50
41547;DHT22;27271;45.412;10.852;2022-09-01T14:02:24;26.40;81.40
41547;DHT22;27271;45.412;10.852;2022-09-01T14:05:47;23.90;99.90
41547;DHT22;27271;45.412;10.852;2022-09-01T14:09:12;22.30;99.90
41547;DHT22;27271;45.412;10.852;2022-09-01T14:12:38;21.80;99.90
41547;DHT22;27271;45.412;10.852;2022-09-01T14:16:09;21.90;99.90
41547;DHT22;27271;45.412;10.852;2022-09-01T14:19:31;21.90;99.90
41547;DHT22;27271;45.412;10.852;2022-09-01T14:22:53;21.80;99.90
41547;DHT22;27271;45.412;10.852;2022-09-01T14:26:16;21.50;99.90
41547;DHT22;27271;45.412;10.852;2022-09-01T14:29:39;21.50;99.90
41547;DHT22;27271;45.412;10.852;2022-09-01T14:33:00;21.50;99.90
41547;DHT22;27271;45.412;10.852;2022-09-01T14:36:25;21.60;99.90
41547;DHT22;27271;45.412;10.852;2022-09-01T14:39:54;21.70;99.90
41547;DHT22;27271;45.412;10.852;2022-09-01T14:43:17;21.70;99.90
41547;DHT22;27271;45.412;10.852;2022-09-01T14:46:42;21.80;99.90
41547;DHT22;27271;45.412;10.852;2022-09-01T14:50:06;21.90;99.90
41547;DHT22;27271;45.412;10.852;2022-09-01T14:53:31;22.10;99.90
41547;DHT22;27271;45.412;10.852;2022-09-01T14:56:53;22.20;99.90
41547;DHT22;27271;45.412;10.852;2022-09-01T15:00:39;22.40;99.90
41547;DHT22;27271;45.412;10.852;2022-09-01T15:04:02;22.60;99.90
41547;DHT22;27271;45.412;10.852;2022-09-01T15:07:25;22.80;99.90
41547;DHT22;27271;45.412;10.852;2022-09-01T15:10:47;23.10;99.90
41547;DHT22;27271;45.412;10.852;2022-09-01T15:14:10;23.70;99.90
41547;DHT22;27271;45.412;10.852;2022-09-01T15:17:39;24.20;99.90
41547;DHT22;27271;45.412;10.852;2022-09-01T15:21:07;24.20;99.90
41547;DHT22;27271;45.412;10.852;2022-09-01T15:24:30;24.30;99.90
41547;DHT22;27271;45.412;10.852;2022-09-01T15:27:53;24.50;99.90
41547;DHT22;27271;45.412;10.852;2022-09-01T15:31:17;24.90;99.90
41547;DHT22;27271;45.412;10.852;2022-09-01T15:34:54;25.30;99.90
41547;DHT22;27271;45.412;10.852;2022-09-01T15:38:19;25.60;99.90
41547;DHT22;27271;45.412;10.852;2022-09-01T15:41:48;25.70;99.90
41547;DHT22;27271;45.412;10.852;2022-09-01T15:45:13;25.00;99.90
41547;DHT22;27271;45.412;10.852;2022-09-01T15:48:40;24.80;99.90
41547;DHT22;27271;45.412;10.852;2022-09-01T15:52:02;24.70;99.90
41547;DHT22;27271;45.412;10.852;2022-09-01T15:55:38;24.20;99.90
41547;DHT22;27271;45.412;10.852;2022-09-01T15:59:03;23.70;99.90
41547;DHT22;27271;45.412;10.852;2022-09-01T16:02:26;23.50;99.90
41547;DHT22;27271;45.412;10.852;2022-09-01T16:05:48;23.60;99.90
41547;DHT22;27271;45.412;10.852;2022-09-01T16:09:11;23.50;99.90
41547;DHT22;27271;45.412;10.852;2022-09-01T16:12:33;23.50;99.90
41547;DHT22;27271;45.412;10.852;2022-09-01T16:19:47;23.50;99.90
41547;DHT22;27271;45.412;10.852;2022-09-01T16:23:16;23.60;99.90
41547;DHT22;27271;45.412;10.852;2022-09-01T16:26:40;23.50;99.90
41547;DHT22;27271;45.412;10.852;2022-09-01T16:30:14;23.40;99.90
41547;DHT22;27271;45.412;10.852;2022-09-01T16:33:38;23.30;99.90
41547;DHT22;27271;45.412;10.852;2022-09-01T16:37:18;23.20;99.90
41547;DHT22;27271;45.412;10.852;2022-09-01T16:48:10;23.30;99.90
41547;DHT22;27271;45.412;10.852;2022-09-01T16:59:35;22.90;99.90
41547;DHT22;27271;45.412;10.852;2022-09-01T17:03:14;22.80;99.90
41547;DHT22;27271;45.412;10.852;2022-09-01T17:06:56;22.70;99.90
41547;DHT22;27271;45.412;10.852;2022-09-01T17:13:51;22.60;99.90
41547;DHT22;27271;45.412;10.852;2022-09-01T17:17:18;22.70;99.90
41547;DHT22;27271;45.412;10.852;2022-09-01T17:20:45;22.70;99.90
41547;DHT22;27271;45.412;10.852;2022-09-01T17:24:36;22.70;98.60
41547;DHT22;27271;45.412;10.852;2022-09-01T17:28:17;22.60;99.00
41547;DHT22;27271;45.412;10.852;2022-09-01T17:31:48;22.40;98.10
41547;DHT22;27271;45.412;10.852;2022-09-01T17:39:06;22.40;96.70
41547;DHT22;27271;45.412;10.852;2022-09-01T18:01:15;22.20;96.90
41547;DHT22;27271;45.412;10.852;2022-09-01T18:06:03;22.20;95.80
41547;DHT22;27271;45.412;10.852;2022-09-01T18:08:55;22.30;96.00
41547;DHT22;27271;45.412;10.852;2022-09-01T18:12:28;22.30;95.60
41547;DHT22;27271;45.412;10.852;2022-09-01T18:15:53;22.20;95.10
41547;DHT22;27271;45.412;10.852;2022-09-01T18:19:23;22.20;94.10
41547;DHT22;27271;45.412;10.852;2022-09-01T18:26:30;22.00;94.40
41547;DHT22;27271;45.412;10.852;2022-09-01T18:29:56;21.90;95.90
41547;DHT22;27271;45.412;10.852;2022-09-01T18:36:57;21.80;97.90
41547;DHT22;27271;45.412;10.852;2022-09-01T18:40:28;21.70;97.10
41547;DHT22;27271;45.412;10.852;2022-09-01T18:44:57;21.60;96.40
41547;DHT22;27271;45.412;10.852;2022-09-01T18:47:56;21.60;97.30
41547;DHT22;27271;45.412;10.852;2022-09-01T18:55:37;21.40;96.70
41547;DHT22;27271;45.412;10.852;2022-09-01T19:06:29;21.30;96.40
41547;DHT22;27271;45.412;10.852;2022-09-01T19:09:55;21.10;95.80
41547;DHT22;27271;45.412;10.852;2022-09-01T19:21:00;21.10;94.60
41547;DHT22;27271;45.412;10.852;2022-09-01T19:25:05;21.00;95.60
41547;DHT22;27271;45.412;10.852;2022-09-01T19:29:07;20.90;95.60
41547;DHT22;27271;45.412;10.852;2022-09-01T19:32:34;20.80;96.40
41547;DHT22;27271;45.412;10.852;2022-09-01T19:36:03;20.80;95.50
41547;DHT22;27271;45.412;10.852;2022-09-01T19:39:31;20.70;96.00
41547;DHT22;27271;45.412;10.852;2022-09-01T19:43:08;20.60;96.00
41547;DHT22;27271;45.412;10.852;2022-09-01T19:46:59;20.50;97.30
41547;DHT22;27271;45.412;10.852;2022-09-01T19:50:36;20.50;96.40
41547;DHT22;27271;45.412;10.852;2022-09-01T19:54:19;20.50;96.20
41547;DHT22;27271;45.412;10.852;2022-09-01T19:57:55;20.50;95.90
41547;DHT22;27271;45.412;10.852;2022-09-01T20:05:34;20.40;95.90
41547;DHT22;27271;45.412;10.852;2022-09-01T20:12:54;20.30;96.70
41547;DHT22;27271;45.412;10.852;2022-09-01T20:16:48;20.30;96.50
41547;DHT22;27271;45.412;10.852;2022-09-01T20:20:15;20.40;95.20
41547;DHT22;27271;45.412;10.852;2022-09-01T20:23:58;20.40;95.30
41547;DHT22;27271;45.412;10.852;2022-09-01T20:27:48;20.50;95.20
41547;DHT22;27271;45.412;10.852;2022-09-01T20:31:36;20.60;94.50
41547;DHT22;27271;45.412;10.852;2022-09-01T20:35:05;20.50;94.60
41547;DHT22;27271;45.412;10.852;2022-09-01T20:46:25;20.70;95.10
41547;DHT22;27271;45.412;10.852;2022-09-01T20:49:47;20.60;95.00
41547;DHT22;27271;45.412;10.852;2022-09-01T21:00:28;20.60;95.90
41547;DHT22;27271;45.412;10.852;2022-09-01T21:12:50;20.30;95.00
41547;DHT22;27271;45.412;10.852;2022-09-01T21:23:42;20.60;93.80
41547;DHT22;27271;45.412;10.852;2022-09-01T21:27:09;20.60;94.00
41547;DHT22;27271;45.412;10.852;2022-09-01T21:30:33;20.60;95.00
41547;DHT22;27271;45.412;10.852;2022-09-01T21:33:56;20.60;94.30
41547;DHT22;27271;45.412;10.852;2022-09-01T21:37:18;20.50;95.50
41547;DHT22;27271;45.412;10.852;2022-09-01T21:40:43;20.50;94.10
41547;DHT22;27271;45.412;10.852;2022-09-01T21:44:05;20.60;94.40
41547;DHT22;27271;45.412;10.852;2022-09-01T21:47:28;20.70;94.00
41547;DHT22;27271;45.412;10.852;2022-09-01T21:50:50;20.70;94.00
41547;DHT22;27271;45.412;10.852;2022-09-01T21:54:12;20.70;94.80
41547;DHT22;27271;45.412;10.852;2022-09-01T21:57:34;20.70;94.80
41547;DHT22;27271;45.412;10.852;2022-09-01T22:00:57;20.70;94.40
41547;DHT22;27271;45.412;10.852;2022-09-01T22:04:19;20.80;94.40
41547;DHT22;27271;45.412;10.852;2022-09-01T22:07:44;20.80;94.10
41547;DHT22;27271;45.412;10.852;2022-09-01T22:11:08;20.80;93.80
41547;DHT22;27271;45.412;10.852;2022-09-01T22:14:30;20.80;95.00
41547;DHT22;27271;45.412;10.852;2022-09-01T22:17:54;20.80;94.00
41547;DHT22;27271;45.412;10.852;2022-09-01T22:21:17;20.80;94.30
41547;DHT22;27271;45.412;10.852;2022-09-01T22:24:39;20.80;94.60
41547;DHT22;27271;45.412;10.852;2022-09-01T22:28:04;20.80;94.60
41547;DHT22;27271;45.412;10.852;2022-09-01T22:31:28;20.90;93.30
41547;DHT22;27271;45.412;10.852;2022-09-01T22:34:50;21.00;93.90
41547;DHT22;27271;45.412;10.852;2022-09-01T22:38:13;21.00;94.20
41547;DHT22;27271;45.412;10.852;2022-09-01T22:41:38;21.00;93.60
41547;DHT22;27271;45.412;10.852;2022-09-01T22:45:01;21.00;93.40
41547;DHT22;27271;45.412;10.852;2022-09-01T22:48:25;21.00;93.80
41547;DHT22;27271;45.412;10.852;2022-09-01T22:51:47;21.00;93.50
41547;DHT22;27271;45.412;10.852;2022-09-01T22:55:10;21.00;94.30
41547;DHT22;27271;45.412;10.852;2022-09-01T22:58:32;21.00;93.10
41547;DHT22;27271;45.412;10.852;2022-09-01T23:01:54;21.00;93.70
41547;DHT22;27271;45.412;10.852;2022-09-01T23:05:16;21.00;94.00
41547;DHT22;27271;45.412;10.852;2022-09-01T23:08:39;21.00;94.70
41547;DHT22;27271;45.412;10.852;2022-09-01T23:12:02;20.90;94.70
41547;DHT22;27271;45.412;10.852;2022-09-01T23:15:24;20.90;94.00
41547;DHT22;27271;45.412;10.852;2022-09-01T23:18:47;20.90;94.70
41547;DHT22;27271;45.412;10.852;2022-09-01T23:22:09;20.90;95.40
41547;DHT22;27271;45.412;10.852;2022-09-01T23:25:31;20.80;95.30
41547;DHT22;27271;45.412;10.852;2022-09-01T23:28:57;20.80;94.80
41547;DHT22;27271;45.412;10.852;2022-09-01T23:32:19;20.90;95.90
41547;DHT22;27271;45.412;10.852;2022-09-01T23:35:48;20.80;95.80
41547;DHT22;27271;45.412;10.852;2022-09-01T23:39:10;20.80;95.80
41547;DHT22;27271;45.412;10.852;2022-09-01T23:42:32;20.70;96.00
41547;DHT22;27271;45.412;10.852;2022-09-01T23:45:55;20.70;96.70
41547;DHT22;27271;45.412;10.852;2022-09-01T23:49:17;20.60;96.50
41547;DHT22;27271;45.412;10.852;2022-09-01T23:52:39;20.60;96.20
41547;DHT22;27271;45.412;10.852;2022-09-01T23:56:07;20.60;96.00
41547;DHT22;27271;45.412;10.852;2022-09-01T23:59:29;20.60;96.10
